sensor_id;sensor_type;location;lat;lon;timestamp;temperature;humidity
11491;DHT22;5802;52.832;4.758;2022-09-03T00:00:04;24.00;48.10
11491;DHT22;5802;52.832;4.758;2022-09-03T00:02:38;24.00;48.00
11491;DHT22;5802;52.832;4.758;2022-09-03T00:05:13;24.00;48.10
11491;DHT22;5802;52.832;4.758;2022-09-03T00:07:45;24.00;48.10
11491;DHT22;5802;52.832;4.758;2022-09-03T00:10:18;24.00;48.10
11491;DHT22;5802;52.832;4.758;2022-09-03T00:12:51;24.00;48.10
11491;DHT22;5802;52.832;4.758;2022-09-03T00:15:20;24.00;48.10
11491;DHT22;5802;52.832;4.758;2022-09-03T00:17:54;23.90;48.00
11491;DHT22;5802;52.832;4.758;2022-09-03T00:20:27;24.00;48.00
11491;DHT22;5802;52.832;4.758;2022-09-03T00:22:58;24.00;48.00
11491;DHT22;5802;52.832;4.758;2022-09-03T00:25:33;23.90;47.90
11491;DHT22;5802;52.832;4.758;2022-09-03T00:28:07;23.90;47.90
11491;DHT22;5802;52.832;4.758;2022-09-03T00:30:38;23.90;47.90
11491;DHT22;5802;52.832;4.758;2022-09-03T00:33:08;23.90;47.90
11491;DHT22;5802;52.832;4.758;2022-09-03T00:35:42;23.90;47.90
11491;DHT22;5802;52.832;4.758;2022-09-03T00:38:10;23.90;47.90
11491;DHT22;5802;52.832;4.758;2022-09-03T00:40:57;23.90;47.90
11491;DHT22;5802;52.832;4.758;2022-09-03T00:43:39;23.90;47.90
11491;DHT22;5802;52.832;4.758;2022-09-03T00:46:16;23.90;47.90
11491;DHT22;5802;52.832;4.758;2022-09-03T00:49:04;23.90;47.90
11491;DHT22;5802;52.832;4.758;2022-09-03T00:51:43;23.90;47.90
11491;DHT22;5802;52.832;4.758;2022-09-03T00:54:17;23.90;48.60
11491;DHT22;5802;52.832;4.758;2022-09-03T00:56:49;23.80;47.90
11491;DHT22;5802;52.832;4.758;2022-09-03T00:59:31;23.80;47.90
11491;DHT22;5802;52.832;4.758;2022-09-03T01:02:10;23.80;47.90
11491;DHT22;5802;52.832;4.758;2022-09-03T01:04:51;23.80;47.90
11491;DHT22;5802;52.832;4.758;2022-09-03T01:07:31;23.80;48.00
11491;DHT22;5802;52.832;4.758;2022-09-03T01:10:06;23.80;47.90
11491;DHT22;5802;52.832;4.758;2022-09-03T01:12:42;23.80;48.00
11491;DHT22;5802;52.832;4.758;2022-09-03T01:15:18;23.80;48.10
11491;DHT22;5802;52.832;4.758;2022-09-03T01:17:57;23.80;47.90
11491;DHT22;5802;52.832;4.758;2022-09-03T01:20:51;23.80;47.90
11491;DHT22;5802;52.832;4.758;2022-09-03T01:23:54;23.80;48.00
11491;DHT22;5802;52.832;4.758;2022-09-03T01:26:46;23.80;48.00
11491;DHT22;5802;52.832;4.758;2022-09-03T01:29:22;23.70;48.00
11491;DHT22;5802;52.832;4.758;2022-09-03T01:31:59;23.70;48.00
11491;DHT22;5802;52.832;4.758;2022-09-03T01:34:34;23.70;48.00
11491;DHT22;5802;52.832;4.758;2022-09-03T01:37:09;23.70;48.00
11491;DHT22;5802;52.832;4.758;2022-09-03T01:39:45;23.70;48.00
11491;DHT22;5802;52.832;4.758;2022-09-03T01:42:22;23.70;48.00
11491;DHT22;5802;52.832;4.758;2022-09-03T01:45:20;23.70;48.00
11491;DHT22;5802;52.832;4.758;2022-09-03T01:48:07;23.70;48.00
11491;DHT22;5802;52.832;4.758;2022-09-03T01:50:44;23.70;48.00
11491;DHT22;5802;52.832;4.758;2022-09-03T01:53:23;23.70;48.00
11491;DHT22;5802;52.832;4.758;2022-09-03T01:56:02;23.70;48.00
11491;DHT22;5802;52.832;4.758;2022-09-03T01:58:38;23.70;48.00
11491;DHT22;5802;52.832;4.758;2022-09-03T02:01:13;23.70;48.00
11491;DHT22;5802;52.832;4.758;2022-09-03T02:03:43;23.70;48.00
11491;DHT22;5802;52.832;4.758;2022-09-03T02:06:11;23.70;48.10
11491;DHT22;5802;52.832;4.758;2022-09-03T02:08:38;23.70;48.00
11491;DHT22;5802;52.832;4.758;2022-09-03T02:11:08;23.70;48.00
11491;DHT22;5802;52.832;4.758;2022-09-03T02:13:37;23.70;48.00
11491;DHT22;5802;52.832;4.758;2022-09-03T02:16:10;23.70;48.00
11491;DHT22;5802;52.832;4.758;2022-09-03T02:18:41;23.70;48.00
11491;DHT22;5802;52.832;4.758;2022-09-03T02:21:09;23.70;48.00
11491;DHT22;5802;52.832;4.758;2022-09-03T02:23:38;23.60;48.00
11491;DHT22;5802;52.832;4.758;2022-09-03T02:26:06;23.60;47.90
11491;DHT22;5802;52.832;4.758;2022-09-03T02:28:33;23.60;48.00
11491;DHT22;5802;52.832;4.758;2022-09-03T02:31:00;23.60;47.90
11491;DHT22;5802;52.832;4.758;2022-09-03T02:33:28;23.60;47.90
11491;DHT22;5802;52.832;4.758;2022-09-03T02:35:55;23.60;47.90
11491;DHT22;5802;52.832;4.758;2022-09-03T02:38:25;23.60;47.90
11491;DHT22;5802;52.832;4.758;2022-09-03T02:40:52;23.60;48.00
11491;DHT22;5802;52.832;4.758;2022-09-03T02:43:24;23.60;48.00
11491;DHT22;5802;52.832;4.758;2022-09-03T02:45:56;23.60;48.00
11491;DHT22;5802;52.832;4.758;2022-09-03T02:48:25;23.60;48.00
11491;DHT22;5802;52.832;4.758;2022-09-03T02:50:53;23.60;47.90
11491;DHT22;5802;52.832;4.758;2022-09-03T02:53:20;23.60;48.60
11491;DHT22;5802;52.832;4.758;2022-09-03T02:55:47;23.60;48.00
11491;DHT22;5802;52.832;4.758;2022-09-03T02:58:13;23.60;47.90
11491;DHT22;5802;52.832;4.758;2022-09-03T03:00:40;23.60;47.90
11491;DHT22;5802;52.832;4.758;2022-09-03T03:03:07;23.60;48.00
11491;DHT22;5802;52.832;4.758;2022-09-03T03:05:41;23.60;48.00
11491;DHT22;5802;52.832;4.758;2022-09-03T03:08:10;23.50;47.90
11491;DHT22;5802;52.832;4.758;2022-09-03T03:10:39;23.50;47.90
11491;DHT22;5802;52.832;4.758;2022-09-03T03:13:06;23.50;47.90
11491;DHT22;5802;52.832;4.758;2022-09-03T03:15:33;23.50;47.90
11491;DHT22;5802;52.832;4.758;2022-09-03T03:18:00;23.50;47.90
11491;DHT22;5802;52.832;4.758;2022-09-03T03:20:27;23.50;47.90
11491;DHT22;5802;52.832;4.758;2022-09-03T03:22:53;23.50;47.90
11491;DHT22;5802;52.832;4.758;2022-09-03T03:25:21;23.50;47.90
11491;DHT22;5802;52.832;4.758;2022-09-03T03:27:48;23.50;47.90
11491;DHT22;5802;52.832;4.758;2022-09-03T03:30:14;23.50;47.90
11491;DHT22;5802;52.832;4.758;2022-09-03T03:32:41;23.50;47.90
11491;DHT22;5802;52.832;4.758;2022-09-03T03:35:09;23.50;47.90
11491;DHT22;5802;52.832;4.758;2022-09-03T03:37:36;23.50;47.90
11491;DHT22;5802;52.832;4.758;2022-09-03T03:40:03;23.40;47.90
11491;DHT22;5802;52.832;4.758;2022-09-03T03:42:33;23.40;47.90
11491;DHT22;5802;52.832;4.758;2022-09-03T03:45:00;23.40;47.90
11491;DHT22;5802;52.832;4.758;2022-09-03T03:47:31;23.40;47.90
11491;DHT22;5802;52.832;4.758;2022-09-03T03:49:59;23.40;47.90
11491;DHT22;5802;52.832;4.758;2022-09-03T03:52:26;23.40;47.90
11491;DHT22;5802;52.832;4.758;2022-09-03T03:54:53;23.40;47.90
11491;DHT22;5802;52.832;4.758;2022-09-03T03:57:21;23.40;47.90
11491;DHT22;5802;52.832;4.758;2022-09-03T03:59:49;23.40;48.00
11491;DHT22;5802;52.832;4.758;2022-09-03T04:02:16;23.40;48.00
11491;DHT22;5802;52.832;4.758;2022-09-03T04:04:43;23.40;48.00
11491;DHT22;5802;52.832;4.758;2022-09-03T04:07:10;23.40;48.00
11491;DHT22;5802;52.832;4.758;2022-09-03T04:09:37;23.40;48.00
11491;DHT22;5802;52.832;4.758;2022-09-03T04:12:05;23.40;47.90
11491;DHT22;5802;52.832;4.758;2022-09-03T04:14:39;23.40;48.00
11491;DHT22;5802;52.832;4.758;2022-09-03T04:17:08;23.40;48.00
11491;DHT22;5802;52.832;4.758;2022-09-03T04:19:34;23.40;48.00
11491;DHT22;5802;52.832;4.758;2022-09-03T04:22:02;23.30;48.00
11491;DHT22;5802;52.832;4.758;2022-09-03T04:24:29;23.30;48.00
11491;DHT22;5802;52.832;4.758;2022-09-03T04:26:56;23.30;48.00
11491;DHT22;5802;52.832;4.758;2022-09-03T04:29:23;23.30;48.00
11491;DHT22;5802;52.832;4.758;2022-09-03T04:31:50;23.30;48.00
11491;DHT22;5802;52.832;4.758;2022-09-03T04:34:35;23.30;48.00
11491;DHT22;5802;52.832;4.758;2022-09-03T04:37:02;23.30;48.00
11491;DHT22;5802;52.832;4.758;2022-09-03T04:39:28;23.30;48.00
11491;DHT22;5802;52.832;4.758;2022-09-03T04:41:56;23.30;48.00
11491;DHT22;5802;52.832;4.758;2022-09-03T04:44:26;23.30;48.00
11491;DHT22;5802;52.832;4.758;2022-09-03T04:46:52;23.30;48.00
11491;DHT22;5802;52.832;4.758;2022-09-03T04:49:19;23.30;48.00
11491;DHT22;5802;52.832;4.758;2022-09-03T04:51:47;23.30;48.10
11491;DHT22;5802;52.832;4.758;2022-09-03T04:54:14;23.30;48.10
11491;DHT22;5802;52.832;4.758;2022-09-03T04:56:41;23.30;48.10
11491;DHT22;5802;52.832;4.758;2022-09-03T04:59:08;23.30;48.10
11491;DHT22;5802;52.832;4.758;2022-09-03T05:01:37;23.30;48.10
11491;DHT22;5802;52.832;4.758;2022-09-03T05:04:04;23.30;48.10
11491;DHT22;5802;52.832;4.758;2022-09-03T05:06:32;23.30;48.10
11491;DHT22;5802;52.832;4.758;2022-09-03T05:09:01;23.20;48.10
11491;DHT22;5802;52.832;4.758;2022-09-03T05:11:28;23.20;48.10
11491;DHT22;5802;52.832;4.758;2022-09-03T05:13:58;23.20;48.10
11491;DHT22;5802;52.832;4.758;2022-09-03T05:16:25;23.20;48.10
11491;DHT22;5802;52.832;4.758;2022-09-03T05:18:56;23.20;48.10
11491;DHT22;5802;52.832;4.758;2022-09-03T05:21:25;23.20;48.10
11491;DHT22;5802;52.832;4.758;2022-09-03T05:23:53;23.20;48.10
11491;DHT22;5802;52.832;4.758;2022-09-03T05:26:22;23.20;48.10
11491;DHT22;5802;52.832;4.758;2022-09-03T05:28:52;23.20;48.20
11491;DHT22;5802;52.832;4.758;2022-09-03T05:31:21;23.20;48.10
11491;DHT22;5802;52.832;4.758;2022-09-03T05:33:49;23.20;48.30
11491;DHT22;5802;52.832;4.758;2022-09-03T05:36:19;23.20;48.10
11491;DHT22;5802;52.832;4.758;2022-09-03T05:38:46;23.20;48.00
11491;DHT22;5802;52.832;4.758;2022-09-03T05:41:14;23.20;47.90
11491;DHT22;5802;52.832;4.758;2022-09-03T05:43:43;23.20;47.80
11491;DHT22;5802;52.832;4.758;2022-09-03T05:46:12;23.20;47.80
11491;DHT22;5802;52.832;4.758;2022-09-03T05:48:41;23.20;47.80
11491;DHT22;5802;52.832;4.758;2022-09-03T05:51:10;23.20;47.80
11491;DHT22;5802;52.832;4.758;2022-09-03T05:53:39;23.20;47.80
11491;DHT22;5802;52.832;4.758;2022-09-03T05:56:08;23.20;47.70
11491;DHT22;5802;52.832;4.758;2022-09-03T05:58:38;23.20;47.70
11491;DHT22;5802;52.832;4.758;2022-09-03T06:01:11;23.20;47.70
11491;DHT22;5802;52.832;4.758;2022-09-03T06:03:40;23.20;47.70
11491;DHT22;5802;52.832;4.758;2022-09-03T06:06:07;23.20;47.60
11491;DHT22;5802;52.832;4.758;2022-09-03T06:08:35;23.20;47.70
11491;DHT22;5802;52.832;4.758;2022-09-03T06:11:03;23.20;47.60
11491;DHT22;5802;52.832;4.758;2022-09-03T06:13:31;23.20;47.60
11491;DHT22;5802;52.832;4.758;2022-09-03T06:16:00;23.20;47.60
11491;DHT22;5802;52.832;4.758;2022-09-03T06:18:31;23.20;47.60
11491;DHT22;5802;52.832;4.758;2022-09-03T06:20:59;23.20;47.60
11491;DHT22;5802;52.832;4.758;2022-09-03T06:23:27;23.20;47.50
11491;DHT22;5802;52.832;4.758;2022-09-03T06:26:01;23.20;47.50
11491;DHT22;5802;52.832;4.758;2022-09-03T06:28:29;23.20;48.10
11491;DHT22;5802;52.832;4.758;2022-09-03T06:30:59;23.20;47.40
11491;DHT22;5802;52.832;4.758;2022-09-03T06:33:27;23.20;47.40
11491;DHT22;5802;52.832;4.758;2022-09-03T06:35:57;23.20;47.50
11491;DHT22;5802;52.832;4.758;2022-09-03T06:38:25;23.20;47.40
11491;DHT22;5802;52.832;4.758;2022-09-03T06:40:53;23.20;47.40
11491;DHT22;5802;52.832;4.758;2022-09-03T06:43:20;23.20;47.50
11491;DHT22;5802;52.832;4.758;2022-09-03T06:45:53;23.20;47.40
11491;DHT22;5802;52.832;4.758;2022-09-03T06:48:20;23.20;47.40
11491;DHT22;5802;52.832;4.758;2022-09-03T06:50:53;23.30;47.40
11491;DHT22;5802;52.832;4.758;2022-09-03T06:53:24;23.30;47.40
11491;DHT22;5802;52.832;4.758;2022-09-03T06:55:55;23.30;47.40
11491;DHT22;5802;52.832;4.758;2022-09-03T06:58:22;23.30;47.40
11491;DHT22;5802;52.832;4.758;2022-09-03T07:00:49;23.30;47.40
11491;DHT22;5802;52.832;4.758;2022-09-03T07:03:18;23.40;47.40
11491;DHT22;5802;52.832;4.758;2022-09-03T07:05:45;23.40;47.30
11491;DHT22;5802;52.832;4.758;2022-09-03T07:08:12;23.40;47.30
11491;DHT22;5802;52.832;4.758;2022-09-03T07:10:44;23.40;47.20
11491;DHT22;5802;52.832;4.758;2022-09-03T07:13:12;23.50;47.20
11491;DHT22;5802;52.832;4.758;2022-09-03T07:15:39;23.50;47.20
11491;DHT22;5802;52.832;4.758;2022-09-03T07:18:06;23.50;47.10
11491;DHT22;5802;52.832;4.758;2022-09-03T07:20:33;23.60;47.10
11491;DHT22;5802;52.832;4.758;2022-09-03T07:23:00;23.60;47.00
11491;DHT22;5802;52.832;4.758;2022-09-03T07:25:26;23.60;46.90
11491;DHT22;5802;52.832;4.758;2022-09-03T07:27:54;23.70;46.90
11491;DHT22;5802;52.832;4.758;2022-09-03T07:30:21;23.70;46.80
11491;DHT22;5802;52.832;4.758;2022-09-03T07:32:50;23.70;46.80
11491;DHT22;5802;52.832;4.758;2022-09-03T07:35:18;23.80;46.80
11491;DHT22;5802;52.832;4.758;2022-09-03T07:37:45;23.80;46.70
11491;DHT22;5802;52.832;4.758;2022-09-03T07:40:12;23.80;46.60
11491;DHT22;5802;52.832;4.758;2022-09-03T07:42:40;23.90;47.30
11491;DHT22;5802;52.832;4.758;2022-09-03T07:45:08;23.90;46.60
11491;DHT22;5802;52.832;4.758;2022-09-03T07:47:36;23.90;46.50
11491;DHT22;5802;52.832;4.758;2022-09-03T07:50:05;23.90;46.40
11491;DHT22;5802;52.832;4.758;2022-09-03T07:52:32;24.00;46.50
11491;DHT22;5802;52.832;4.758;2022-09-03T07:54:59;24.00;46.40
11491;DHT22;5802;52.832;4.758;2022-09-03T07:57:27;24.00;46.30
11491;DHT22;5802;52.832;4.758;2022-09-03T07:59:53;24.00;46.30
11491;DHT22;5802;52.832;4.758;2022-09-03T08:02:25;24.10;46.30
11491;DHT22;5802;52.832;4.758;2022-09-03T08:04:51;24.10;46.30
11491;DHT22;5802;52.832;4.758;2022-09-03T08:07:18;24.20;46.20
11491;DHT22;5802;52.832;4.758;2022-09-03T08:09:45;24.20;46.20
11491;DHT22;5802;52.832;4.758;2022-09-03T08:12:11;24.20;46.10
11491;DHT22;5802;52.832;4.758;2022-09-03T08:14:38;24.20;46.10
11491;DHT22;5802;52.832;4.758;2022-09-03T08:17:05;24.30;46.10
11491;DHT22;5802;52.832;4.758;2022-09-03T08:19:33;24.30;46.00
11491;DHT22;5802;52.832;4.758;2022-09-03T08:22:00;24.40;46.00
11491;DHT22;5802;52.832;4.758;2022-09-03T08:24:27;24.40;46.00
11491;DHT22;5802;52.832;4.758;2022-09-03T08:26:53;24.40;46.00
11491;DHT22;5802;52.832;4.758;2022-09-03T08:29:22;24.50;45.90
11491;DHT22;5802;52.832;4.758;2022-09-03T08:31:49;24.50;45.80
11491;DHT22;5802;52.832;4.758;2022-09-03T08:34:16;24.50;45.80
11491;DHT22;5802;52.832;4.758;2022-09-03T08:36:45;24.60;45.80
11491;DHT22;5802;52.832;4.758;2022-09-03T08:39:12;24.60;45.70
11491;DHT22;5802;52.832;4.758;2022-09-03T08:42:03;24.70;45.70
11491;DHT22;5802;52.832;4.758;2022-09-03T08:44:38;24.70;45.70
11491;DHT22;5802;52.832;4.758;2022-09-03T08:47:10;24.70;45.70
11491;DHT22;5802;52.832;4.758;2022-09-03T08:49:43;24.80;45.70
11491;DHT22;5802;52.832;4.758;2022-09-03T08:52:21;24.80;45.60
11491;DHT22;5802;52.832;4.758;2022-09-03T08:54:50;24.80;45.50
11491;DHT22;5802;52.832;4.758;2022-09-03T08:57:20;24.90;45.50
11491;DHT22;5802;52.832;4.758;2022-09-03T08:59:50;24.90;45.50
11491;DHT22;5802;52.832;4.758;2022-09-03T09:02:25;25.00;45.40
11491;DHT22;5802;52.832;4.758;2022-09-03T09:04:58;25.00;45.40
11491;DHT22;5802;52.832;4.758;2022-09-03T09:07:36;25.10;45.40
11491;DHT22;5802;52.832;4.758;2022-09-03T09:10:13;25.10;45.40
11491;DHT22;5802;52.832;4.758;2022-09-03T09:12:48;25.10;45.30
11491;DHT22;5802;52.832;4.758;2022-09-03T09:15:25;25.10;45.30
11491;DHT22;5802;52.832;4.758;2022-09-03T09:18:02;25.20;45.30
11491;DHT22;5802;52.832;4.758;2022-09-03T09:20:35;25.20;45.20
11491;DHT22;5802;52.832;4.758;2022-09-03T09:23:13;25.20;45.20
11491;DHT22;5802;52.832;4.758;2022-09-03T09:25:45;25.20;45.20
11491;DHT22;5802;52.832;4.758;2022-09-03T09:28:17;25.20;45.20
11491;DHT22;5802;52.832;4.758;2022-09-03T09:30:46;25.20;45.30
11491;DHT22;5802;52.832;4.758;2022-09-03T09:33:13;25.20;45.30
11491;DHT22;5802;52.832;4.758;2022-09-03T09:35:40;25.20;45.30
11491;DHT22;5802;52.832;4.758;2022-09-03T09:38:09;25.20;45.30
11491;DHT22;5802;52.832;4.758;2022-09-03T09:40:38;25.20;45.40
11491;DHT22;5802;52.832;4.758;2022-09-03T09:43:12;25.20;45.40
11491;DHT22;5802;52.832;4.758;2022-09-03T09:45:43;25.20;45.40
11491;DHT22;5802;52.832;4.758;2022-09-03T09:48:18;25.10;45.40
11491;DHT22;5802;52.832;4.758;2022-09-03T09:50:46;25.10;45.50
11491;DHT22;5802;52.832;4.758;2022-09-03T09:53:17;25.10;45.50
11491;DHT22;5802;52.832;4.758;2022-09-03T09:55:50;25.10;45.50
11491;DHT22;5802;52.832;4.758;2022-09-03T09:58:19;25.10;45.60
11491;DHT22;5802;52.832;4.758;2022-09-03T10:00:57;25.10;45.60
11491;DHT22;5802;52.832;4.758;2022-09-03T10:03:25;25.00;45.60
11491;DHT22;5802;52.832;4.758;2022-09-03T10:06:01;25.00;45.60
11491;DHT22;5802;52.832;4.758;2022-09-03T10:08:52;25.00;45.70
11491;DHT22;5802;52.832;4.758;2022-09-03T10:11:20;25.00;45.70
11491;DHT22;5802;52.832;4.758;2022-09-03T10:13:55;25.00;45.70
11491;DHT22;5802;52.832;4.758;2022-09-03T10:16:26;25.00;45.70
11491;DHT22;5802;52.832;4.758;2022-09-03T10:19:00;25.00;45.70
11491;DHT22;5802;52.832;4.758;2022-09-03T10:21:34;25.00;45.60
11491;DHT22;5802;52.832;4.758;2022-09-03T10:24:22;25.00;45.60
11491;DHT22;5802;52.832;4.758;2022-09-03T10:26:52;25.00;45.60
11491;DHT22;5802;52.832;4.758;2022-09-03T10:29:21;25.00;45.70
11491;DHT22;5802;52.832;4.758;2022-09-03T10:31:58;25.00;45.70
11491;DHT22;5802;52.832;4.758;2022-09-03T10:34:33;25.00;45.70
11491;DHT22;5802;52.832;4.758;2022-09-03T10:37:13;25.00;45.70
11491;DHT22;5802;52.832;4.758;2022-09-03T10:39:55;25.00;45.70
11491;DHT22;5802;52.832;4.758;2022-09-03T10:42:34;25.00;45.80
11491;DHT22;5802;52.832;4.758;2022-09-03T10:45:12;25.00;45.80
11491;DHT22;5802;52.832;4.758;2022-09-03T10:48:00;25.00;46.00
11491;DHT22;5802;52.832;4.758;2022-09-03T10:50:32;25.00;46.00
11491;DHT22;5802;52.832;4.758;2022-09-03T10:53:09;25.00;46.00
11491;DHT22;5802;52.832;4.758;2022-09-03T10:55:47;25.00;46.00
11491;DHT22;5802;52.832;4.758;2022-09-03T10:58:39;25.00;46.00
11491;DHT22;5802;52.832;4.758;2022-09-03T11:01:11;25.00;46.00
11491;DHT22;5802;52.832;4.758;2022-09-03T11:03:45;25.00;46.00
11491;DHT22;5802;52.832;4.758;2022-09-03T11:06:18;25.00;46.10
11491;DHT22;5802;52.832;4.758;2022-09-03T11:08:52;25.00;46.10
11491;DHT22;5802;52.832;4.758;2022-09-03T11:11:24;25.00;46.10
11491;DHT22;5802;52.832;4.758;2022-09-03T11:13:55;25.00;46.10
11491;DHT22;5802;52.832;4.758;2022-09-03T11:16:25;25.00;46.10
11491;DHT22;5802;52.832;4.758;2022-09-03T11:18:56;25.00;46.00
11491;DHT22;5802;52.832;4.758;2022-09-03T11:21:26;25.00;45.90
11491;DHT22;5802;52.832;4.758;2022-09-03T11:24:03;25.10;45.90
11491;DHT22;5802;52.832;4.758;2022-09-03T11:26:33;25.10;45.80
11491;DHT22;5802;52.832;4.758;2022-09-03T11:29:04;25.10;46.40
11491;DHT22;5802;52.832;4.758;2022-09-03T11:31:44;25.10;45.70
11491;DHT22;5802;52.832;4.758;2022-09-03T11:34:14;25.10;45.70
11491;DHT22;5802;52.832;4.758;2022-09-03T11:36:42;25.10;45.70
11491;DHT22;5802;52.832;4.758;2022-09-03T11:39:13;25.10;45.60
11491;DHT22;5802;52.832;4.758;2022-09-03T11:41:56;25.10;45.60
11491;DHT22;5802;52.832;4.758;2022-09-03T11:44:23;25.10;45.50
11491;DHT22;5802;52.832;4.758;2022-09-03T11:46:55;25.20;45.50
11491;DHT22;5802;52.832;4.758;2022-09-03T11:49:28;25.20;45.50
11491;DHT22;5802;52.832;4.758;2022-09-03T11:51:59;25.20;45.40
11491;DHT22;5802;52.832;4.758;2022-09-03T11:54:27;25.20;45.50
11491;DHT22;5802;52.832;4.758;2022-09-03T11:57:10;25.20;45.50
11491;DHT22;5802;52.832;4.758;2022-09-03T11:59:39;25.20;45.50
11491;DHT22;5802;52.832;4.758;2022-09-03T12:02:18;25.20;45.40
11491;DHT22;5802;52.832;4.758;2022-09-03T12:04:50;25.20;45.40
11491;DHT22;5802;52.832;4.758;2022-09-03T12:07:38;25.20;45.40
11491;DHT22;5802;52.832;4.758;2022-09-03T12:10:29;25.20;45.30
11491;DHT22;5802;52.832;4.758;2022-09-03T12:13:09;25.20;45.30
11491;DHT22;5802;52.832;4.758;2022-09-03T12:16:04;25.20;45.30
11491;DHT22;5802;52.832;4.758;2022-09-03T12:18:34;25.20;45.20
11491;DHT22;5802;52.832;4.758;2022-09-03T12:21:04;25.30;45.90
11491;DHT22;5802;52.832;4.758;2022-09-03T12:23:34;25.30;45.20
11491;DHT22;5802;52.832;4.758;2022-09-03T12:26:04;25.30;45.20
11491;DHT22;5802;52.832;4.758;2022-09-03T12:28:36;25.30;45.20
11491;DHT22;5802;52.832;4.758;2022-09-03T12:31:08;25.30;45.20
11491;DHT22;5802;52.832;4.758;2022-09-03T12:33:46;25.30;45.10
11491;DHT22;5802;52.832;4.758;2022-09-03T12:36:14;25.30;45.20
11491;DHT22;5802;52.832;4.758;2022-09-03T12:38:41;25.30;45.10
11491;DHT22;5802;52.832;4.758;2022-09-03T12:41:23;25.30;45.10
11491;DHT22;5802;52.832;4.758;2022-09-03T12:43:54;25.40;45.00
11491;DHT22;5802;52.832;4.758;2022-09-03T12:46:23;25.40;45.00
11491;DHT22;5802;52.832;4.758;2022-09-03T12:48:54;25.40;44.90
11491;DHT22;5802;52.832;4.758;2022-09-03T12:51:21;25.40;44.90
11491;DHT22;5802;52.832;4.758;2022-09-03T12:53:48;25.50;45.00
11491;DHT22;5802;52.832;4.758;2022-09-03T12:56:16;25.50;44.90
11491;DHT22;5802;52.832;4.758;2022-09-03T12:58:50;25.50;44.80
11491;DHT22;5802;52.832;4.758;2022-09-03T13:01:26;25.60;44.70
11491;DHT22;5802;52.832;4.758;2022-09-03T13:04:01;25.60;44.60
11491;DHT22;5802;52.832;4.758;2022-09-03T13:06:33;25.60;44.50
11491;DHT22;5802;52.832;4.758;2022-09-03T13:09:04;25.60;44.40
11491;DHT22;5802;52.832;4.758;2022-09-03T13:11:33;25.60;44.30
11491;DHT22;5802;52.832;4.758;2022-09-03T13:14:03;25.60;44.30
11491;DHT22;5802;52.832;4.758;2022-09-03T13:16:50;25.60;44.20
11491;DHT22;5802;52.832;4.758;2022-09-03T13:19:26;25.60;44.20
11491;DHT22;5802;52.832;4.758;2022-09-03T13:22:02;25.60;44.20
11491;DHT22;5802;52.832;4.758;2022-09-03T13:24:46;25.60;44.20
11491;DHT22;5802;52.832;4.758;2022-09-03T13:27:23;25.60;44.20
11491;DHT22;5802;52.832;4.758;2022-09-03T13:30:04;25.60;44.20
11491;DHT22;5802;52.832;4.758;2022-09-03T13:32:49;25.60;44.20
11491;DHT22;5802;52.832;4.758;2022-09-03T13:35:25;25.60;44.20
11491;DHT22;5802;52.832;4.758;2022-09-03T13:37:56;25.50;44.00
11491;DHT22;5802;52.832;4.758;2022-09-03T13:40:32;25.50;43.90
11491;DHT22;5802;52.832;4.758;2022-09-03T13:43:03;25.50;43.70
11491;DHT22;5802;52.832;4.758;2022-09-03T13:45:37;25.50;43.70
11491;DHT22;5802;52.832;4.758;2022-09-03T13:48:10;25.50;43.70
11491;DHT22;5802;52.832;4.758;2022-09-03T13:51:03;25.50;43.60
11491;DHT22;5802;52.832;4.758;2022-09-03T13:53:41;25.50;43.60
11491;DHT22;5802;52.832;4.758;2022-09-03T13:56:20;25.50;43.60
11491;DHT22;5802;52.832;4.758;2022-09-03T13:58:52;25.50;43.60
11491;DHT22;5802;52.832;4.758;2022-09-03T14:01:24;25.60;43.50
11491;DHT22;5802;52.832;4.758;2022-09-03T14:03:56;25.60;43.40
11491;DHT22;5802;52.832;4.758;2022-09-03T14:06:38;25.60;43.50
11491;DHT22;5802;52.832;4.758;2022-09-03T14:09:14;25.60;43.50
11491;DHT22;5802;52.832;4.758;2022-09-03T14:11:55;25.60;43.50
11491;DHT22;5802;52.832;4.758;2022-09-03T14:14:44;25.60;43.40
11491;DHT22;5802;52.832;4.758;2022-09-03T14:17:20;25.60;43.30
11491;DHT22;5802;52.832;4.758;2022-09-03T14:19:56;25.60;43.30
11491;DHT22;5802;52.832;4.758;2022-09-03T14:22:41;25.60;43.30
11491;DHT22;5802;52.832;4.758;2022-09-03T14:25:13;25.60;43.30
11491;DHT22;5802;52.832;4.758;2022-09-03T14:27:41;25.60;43.30
11491;DHT22;5802;52.832;4.758;2022-09-03T14:30:18;25.60;43.20
11491;DHT22;5802;52.832;4.758;2022-09-03T14:32:50;25.60;43.20
11491;DHT22;5802;52.832;4.758;2022-09-03T14:35:44;25.70;43.20
11491;DHT22;5802;52.832;4.758;2022-09-03T14:38:43;25.70;43.30
11491;DHT22;5802;52.832;4.758;2022-09-03T14:41:33;25.70;43.40
11491;DHT22;5802;52.832;4.758;2022-09-03T14:44:26;25.70;43.40
11491;DHT22;5802;52.832;4.758;2022-09-03T14:47:08;25.70;43.40
11491;DHT22;5802;52.832;4.758;2022-09-03T14:53:06;25.80;43.50
11491;DHT22;5802;52.832;4.758;2022-09-03T14:55:47;25.80;43.50
11491;DHT22;5802;52.832;4.758;2022-09-03T14:58:37;25.80;43.60
11491;DHT22;5802;52.832;4.758;2022-09-03T15:01:11;25.80;43.60
11491;DHT22;5802;52.832;4.758;2022-09-03T15:04:01;25.90;43.60
11491;DHT22;5802;52.832;4.758;2022-09-03T15:06:47;25.90;43.80
11491;DHT22;5802;52.832;4.758;2022-09-03T15:09:29;25.90;43.70
11491;DHT22;5802;52.832;4.758;2022-09-03T15:12:02;26.00;43.80
11491;DHT22;5802;52.832;4.758;2022-09-03T15:14:34;26.00;43.80
11491;DHT22;5802;52.832;4.758;2022-09-03T15:17:21;26.00;43.80
11491;DHT22;5802;52.832;4.758;2022-09-03T15:20:10;26.00;43.80
11491;DHT22;5802;52.832;4.758;2022-09-03T15:23:09;26.10;43.90
11491;DHT22;5802;52.832;4.758;2022-09-03T15:26:04;26.10;43.80
11491;DHT22;5802;52.832;4.758;2022-09-03T15:28:44;26.10;43.90
11491;DHT22;5802;52.832;4.758;2022-09-03T15:31:21;26.10;43.90
11491;DHT22;5802;52.832;4.758;2022-09-03T15:33:54;26.10;43.90
11491;DHT22;5802;52.832;4.758;2022-09-03T15:36:26;26.10;43.90
11491;DHT22;5802;52.832;4.758;2022-09-03T15:39:01;26.10;43.80
11491;DHT22;5802;52.832;4.758;2022-09-03T15:41:35;26.10;43.70
11491;DHT22;5802;52.832;4.758;2022-09-03T15:44:10;26.10;43.70
11491;DHT22;5802;52.832;4.758;2022-09-03T15:46:48;26.10;43.60
11491;DHT22;5802;52.832;4.758;2022-09-03T15:49:26;26.10;43.60
11491;DHT22;5802;52.832;4.758;2022-09-03T15:52:02;26.10;43.60
11491;DHT22;5802;52.832;4.758;2022-09-03T15:54:37;26.00;43.50
11491;DHT22;5802;52.832;4.758;2022-09-03T15:57:12;26.00;43.50
11491;DHT22;5802;52.832;4.758;2022-09-03T15:59:50;26.00;43.50
11491;DHT22;5802;52.832;4.758;2022-09-03T16:02:26;26.00;43.60
11491;DHT22;5802;52.832;4.758;2022-09-03T16:05:04;26.00;43.60
11491;DHT22;5802;52.832;4.758;2022-09-03T16:07:45;25.90;43.60
11491;DHT22;5802;52.832;4.758;2022-09-03T16:10:15;25.90;43.60
11491;DHT22;5802;52.832;4.758;2022-09-03T16:12:51;25.90;43.70
11491;DHT22;5802;52.832;4.758;2022-09-03T16:15:24;25.90;43.80
11491;DHT22;5802;52.832;4.758;2022-09-03T16:17:56;25.90;44.00
11491;DHT22;5802;52.832;4.758;2022-09-03T16:20:32;25.90;44.10
11491;DHT22;5802;52.832;4.758;2022-09-03T16:23:03;25.90;44.10